createdAt,value
2018-05-25T00:00:04.622Z,0.00
2018-05-25T00:01:10.129Z,0.00
2018-05-25T00:02:16.644Z,0.00
2018-05-25T00:03:21.153Z,0.00
2018-05-25T00:04:26.671Z,0.00
2018-05-25T00:05:32.181Z,0.00
2018-05-25T00:06:37.751Z,0.00
2018-05-25T00:07:43.278Z,0.00
2018-05-25T00:08:49.750Z,0.00
2018-05-25T00:09:54.254Z,0.00
2018-05-25T00:10:59.768Z,0.00
2018-05-25T00:12:05.300Z,0.00
2018-05-25T00:13:10.798Z,0.00
2018-05-25T00:14:16.320Z,0.00
2018-05-25T00:15:22.861Z,0.00
2018-05-25T00:16:27.367Z,0.00
2018-05-25T00:17:32.875Z,0.00
2018-05-25T00:18:38.401Z,0.00
2018-05-25T00:19:43.902Z,0.00
2018-05-25T00:20:49.425Z,0.00
2018-05-25T00:21:55.947Z,0.00
2018-05-25T00:23:00.460Z,0.00
2018-05-25T00:24:05.972Z,0.00
2018-05-25T00:25:11.505Z,0.00
2018-05-25T00:26:17.006Z,0.00
2018-05-25T00:27:22.518Z,0.00
2018-05-25T00:28:29.065Z,0.00
2018-05-25T00:29:33.554Z,0.00
2018-05-25T00:30:39.072Z,0.00
2018-05-25T00:31:44.591Z,0.00
2018-05-25T00:32:50.102Z,0.00
2018-05-25T00:33:55.627Z,0.00
2018-05-25T00:35:02.147Z,0.00
2018-05-25T00:36:06.650Z,0.00
2018-05-25T00:37:12.177Z,0.00
2018-05-25T00:38:17.691Z,0.00
2018-05-25T00:39:23.205Z,0.00
2018-05-25T00:40:28.737Z,0.00
2018-05-25T00:41:35.284Z,0.00
2018-05-25T00:42:39.748Z,0.00
2018-05-25T00:43:45.269Z,0.00
2018-05-25T00:44:50.875Z,0.00
2018-05-25T00:45:56.311Z,0.00
2018-05-25T00:47:01.831Z,0.00
2018-05-25T00:48:08.351Z,0.00
2018-05-25T00:49:12.861Z,0.00
2018-05-25T00:50:18.381Z,0.00
2018-05-25T00:51:23.890Z,0.00
2018-05-25T00:52:29.416Z,0.00
2018-05-25T00:53:34.915Z,0.00
2018-05-25T00:54:41.443Z,0.00
2018-05-25T00:55:45.965Z,0.00
2018-05-25T00:56:51.482Z,0.00
2018-05-25T00:57:56.996Z,0.00
2018-05-25T00:59:02.508Z,0.00
2018-05-25T01:00:08.014Z,0.00
2018-05-25T01:01:14.548Z,0.00
2018-05-25T01:02:19.057Z,0.00
2018-05-25T01:03:24.578Z,0.00
2018-05-25T01:04:30.090Z,0.00
2018-05-25T01:05:35.605Z,0.00
2018-05-25T01:06:41.135Z,0.00
2018-05-25T01:07:47.640Z,0.00
2018-05-25T01:08:52.160Z,0.00
2018-05-25T01:09:57.688Z,0.00
2018-05-25T01:11:03.190Z,0.00
2018-05-25T01:12:08.695Z,0.00
2018-05-25T01:13:14.218Z,0.00
2018-05-25T01:14:20.758Z,0.00
2018-05-25T01:15:25.276Z,0.00
2018-05-25T01:16:30.775Z,0.00
2018-05-25T01:17:36.347Z,0.00
2018-05-25T01:18:41.801Z,0.00
2018-05-25T01:19:47.334Z,0.00
2018-05-25T01:20:53.841Z,0.00
2018-05-25T01:21:58.354Z,0.00
2018-05-25T01:23:03.871Z,0.00
2018-05-25T01:24:09.381Z,0.00
2018-05-25T01:25:14.911Z,0.00
2018-05-25T01:26:20.410Z,0.00
2018-05-25T01:27:26.948Z,0.00
2018-05-25T01:28:31.453Z,0.00
2018-05-25T01:29:36.962Z,0.00
2018-05-25T01:30:42.477Z,0.00
2018-05-25T01:31:48.000Z,0.00
2018-05-25T01:32:53.666Z,0.00
2018-05-25T01:34:00.045Z,0.00
2018-05-25T01:35:04.545Z,0.00
2018-05-25T01:36:10.078Z,0.00
2018-05-25T01:37:15.731Z,0.00
2018-05-25T01:38:21.102Z,0.00
2018-05-25T01:39:26.612Z,0.00
2018-05-25T01:40:33.137Z,0.00
2018-05-25T01:41:37.650Z,0.00
2018-05-25T01:42:43.162Z,0.00
2018-05-25T01:43:48.684Z,0.00
2018-05-25T01:44:54.195Z,0.00
2018-05-25T01:45:59.717Z,0.00
2018-05-25T01:47:06.251Z,0.00
2018-05-25T01:48:10.760Z,0.00
2018-05-25T01:49:16.269Z,0.00
2018-05-25T01:50:21.788Z,0.00
2018-05-25T01:51:27.293Z,0.00
2018-05-25T01:52:32.817Z,0.00
2018-05-25T01:53:39.386Z,0.00
2018-05-25T01:54:43.851Z,0.00
2018-05-25T01:55:49.450Z,0.00
2018-05-25T01:56:54.884Z,0.00
2018-05-25T01:58:00.391Z,0.00
2018-05-25T01:59:05.921Z,0.00
2018-05-25T02:00:12.450Z,0.00
2018-05-25T02:01:16.950Z,0.00
2018-05-25T02:02:22.472Z,0.00
2018-05-25T02:03:27.971Z,0.00
2018-05-25T02:04:33.503Z,0.00
2018-05-25T02:05:39.011Z,0.00
2018-05-25T02:06:45.534Z,0.00
2018-05-25T02:07:50.045Z,0.00
2018-05-25T02:08:55.570Z,0.00
2018-05-25T02:10:01.072Z,0.00
2018-05-25T02:11:06.618Z,0.00
2018-05-25T02:12:12.121Z,0.00
2018-05-25T02:13:18.630Z,0.00
2018-05-25T02:14:23.140Z,0.00
2018-05-25T02:15:28.665Z,0.00
2018-05-25T02:16:34.180Z,0.00
2018-05-25T02:17:39.711Z,0.00
2018-05-25T02:18:45.214Z,0.00
2018-05-25T02:19:51.731Z,0.00
2018-05-25T02:20:56.239Z,0.00
2018-05-25T02:22:01.759Z,0.00
2018-05-25T02:23:07.269Z,0.00
2018-05-25T02:24:12.792Z,0.00
2018-05-25T02:25:18.301Z,0.00
2018-05-25T02:26:24.899Z,0.00
2018-05-25T02:27:29.348Z,0.00
2018-05-25T02:28:34.987Z,0.00
2018-05-25T02:29:40.369Z,0.00
2018-05-25T02:30:45.891Z,0.00
2018-05-25T02:31:51.406Z,0.00
2018-05-25T02:32:57.932Z,0.00
2018-05-25T02:34:02.437Z,0.00
2018-05-25T02:35:07.956Z,0.00
2018-05-25T02:36:13.486Z,0.00
2018-05-25T02:37:18.983Z,0.00
2018-05-25T02:38:24.502Z,0.00
2018-05-25T02:39:31.031Z,0.00
2018-05-25T02:40:35.538Z,0.00
2018-05-25T02:41:41.064Z,0.00
2018-05-25T02:42:46.563Z,0.00
2018-05-25T02:43:52.096Z,0.00
2018-05-25T02:44:57.605Z,0.00
2018-05-25T02:46:04.123Z,0.00
2018-05-25T02:47:08.634Z,0.00
2018-05-25T02:48:14.148Z,0.00
2018-05-25T02:49:19.673Z,0.00
2018-05-25T02:50:25.181Z,0.00
2018-05-25T02:51:30.698Z,0.00
2018-05-25T02:52:37.227Z,0.00
2018-05-25T02:53:41.733Z,0.00
2018-05-25T02:54:47.245Z,0.00
2018-05-25T02:55:52.773Z,0.00
2018-05-25T02:56:58.273Z,0.00
2018-05-25T02:58:03.800Z,0.00
2018-05-25T02:59:10.333Z,0.00
2018-05-25T03:00:14.837Z,0.00
2018-05-25T03:01:20.344Z,0.00
2018-05-25T03:02:25.880Z,0.00
2018-05-25T03:03:31.396Z,0.00
2018-05-25T03:04:36.904Z,0.00
2018-05-25T03:05:43.979Z,0.00
2018-05-25T03:06:47.924Z,0.00
2018-05-25T03:07:53.440Z,0.00
2018-05-25T03:08:58.965Z,4.00
2018-05-25T03:10:04.476Z,4.00
2018-05-25T03:11:09.997Z,4.00
2018-05-25T03:12:16.520Z,4.00
2018-05-25T03:13:21.026Z,0.00
2018-05-25T03:14:26.546Z,0.00
2018-05-25T03:15:32.066Z,0.00
2018-05-25T03:16:37.584Z,0.00
2018-05-25T03:17:43.096Z,4.00
2018-05-25T03:18:49.622Z,0.00
2018-05-25T03:19:54.127Z,4.00
2018-05-25T03:20:59.656Z,4.00
2018-05-25T03:22:05.155Z,4.00
2018-05-25T03:23:10.673Z,4.00
2018-05-25T03:24:16.199Z,8.00
2018-05-25T03:25:22.715Z,8.00
2018-05-25T03:26:27.236Z,8.00
2018-05-25T03:27:32.742Z,8.00
2018-05-25T03:28:38.257Z,12.00
2018-05-25T03:29:43.782Z,12.00
2018-05-25T03:30:49.282Z,12.00
2018-05-25T03:31:55.821Z,12.00
2018-05-25T03:33:00.317Z,12.00
2018-05-25T03:34:05.834Z,12.00
2018-05-25T03:35:11.389Z,16.00
2018-05-25T03:36:16.870Z,16.00
2018-05-25T03:37:22.380Z,20.00
2018-05-25T03:38:28.911Z,16.00
2018-05-25T03:39:33.420Z,20.00
2018-05-25T03:40:38.939Z,20.00
2018-05-25T03:41:44.451Z,20.00
2018-05-25T03:42:49.963Z,20.00
2018-05-25T03:43:55.575Z,24.00
2018-05-25T03:45:02.018Z,20.00
2018-05-25T03:46:06.521Z,24.00
2018-05-25T03:47:12.973Z,20.00
2018-05-25T03:48:17.549Z,20.00
2018-05-25T03:49:23.070Z,20.00
2018-05-25T03:50:28.580Z,16.00
2018-05-25T03:51:35.108Z,20.00
2018-05-25T03:52:39.612Z,20.00
2018-05-25T03:53:45.128Z,16.00
2018-05-25T03:54:50.657Z,16.00
2018-05-25T03:55:56.169Z,12.00
2018-05-25T03:57:01.687Z,12.00
2018-05-25T03:58:08.209Z,16.00
2018-05-25T03:59:12.718Z,12.00
2018-05-25T04:00:18.241Z,16.00
2018-05-25T04:01:23.760Z,12.00
2018-05-25T04:02:29.263Z,12.00
2018-05-25T04:03:34.783Z,12.00
2018-05-25T04:04:41.316Z,12.00
2018-05-25T04:05:45.812Z,16.00
2018-05-25T04:06:51.332Z,16.00
2018-05-25T04:07:56.865Z,12.00
2018-05-25T04:09:02.365Z,16.00
2018-05-25T04:10:07.881Z,16.00
2018-05-25T04:11:14.414Z,16.00
2018-05-25T04:12:18.916Z,20.00
2018-05-25T04:13:24.435Z,20.00
2018-05-25T04:14:29.948Z,20.00
2018-05-25T04:15:35.523Z,20.00
2018-05-25T04:16:40.974Z,24.00
2018-05-25T04:17:47.558Z,24.00
2018-05-25T04:18:52.011Z,24.00
2018-05-25T04:19:57.527Z,28.00
2018-05-25T04:21:03.042Z,24.00
2018-05-25T04:22:08.567Z,28.00
2018-05-25T04:23:14.078Z,28.00
2018-05-25T04:24:20.617Z,28.00
2018-05-25T04:25:25.109Z,32.00
2018-05-25T04:26:30.629Z,28.00
2018-05-25T04:27:36.148Z,32.00
2018-05-25T04:28:41.679Z,32.00
2018-05-25T04:29:47.179Z,32.00
2018-05-25T04:30:53.716Z,28.00
2018-05-25T04:31:58.215Z,32.00
2018-05-25T04:33:03.724Z,32.00
2018-05-25T04:34:09.242Z,36.00
2018-05-25T04:35:14.766Z,36.00
2018-05-25T04:36:20.280Z,36.00
2018-05-25T04:37:26.801Z,40.00
2018-05-25T04:38:31.309Z,40.00
2018-05-25T04:39:36.828Z,44.00
2018-05-25T04:40:42.345Z,48.00
2018-05-25T04:41:47.860Z,48.00
2018-05-25T04:42:53.371Z,52.00
2018-05-25T04:43:59.917Z,56.00
2018-05-25T04:45:04.423Z,60.00
2018-05-25T04:46:09.925Z,64.00
2018-05-25T04:47:15.451Z,72.00
2018-05-25T04:48:20.960Z,72.00
2018-05-25T04:49:26.475Z,76.00
2018-05-25T04:50:33.000Z,80.00
2018-05-25T04:51:37.516Z,80.00
2018-05-25T04:52:43.026Z,84.00
2018-05-25T04:53:48.553Z,88.00
2018-05-25T04:54:54.052Z,88.00
2018-05-25T04:55:59.610Z,92.00
2018-05-25T04:57:06.100Z,96.00
2018-05-25T04:58:10.613Z,96.00
2018-05-25T04:59:16.140Z,100.00
2018-05-25T05:00:21.643Z,100.00
2018-05-25T05:01:27.148Z,104.00
2018-05-25T05:02:32.676Z,104.00
2018-05-25T05:03:39.204Z,112.00
2018-05-25T05:04:43.702Z,116.00
2018-05-25T05:05:49.222Z,120.00
2018-05-25T05:06:54.744Z,128.00
2018-05-25T05:08:00.265Z,132.00
2018-05-25T05:09:05.766Z,136.00
2018-05-25T05:10:12.313Z,144.00
2018-05-25T05:11:16.817Z,148.00
2018-05-25T05:12:22.330Z,148.00
2018-05-25T05:13:27.842Z,156.00
2018-05-25T05:14:33.348Z,164.00
2018-05-25T05:15:38.876Z,168.00
2018-05-25T05:16:45.407Z,176.00
2018-05-25T05:17:49.904Z,176.00
2018-05-25T05:18:55.434Z,188.00
2018-05-25T05:20:00.942Z,192.00
2018-05-25T05:21:06.457Z,196.00
2018-05-25T05:22:11.969Z,200.00
2018-05-25T05:23:18.510Z,204.00
2018-05-25T05:24:23.001Z,200.00
2018-05-25T05:25:28.519Z,196.00
2018-05-25T05:26:34.039Z,200.00
2018-05-25T05:27:39.548Z,204.00
2018-05-25T05:28:45.184Z,208.00
2018-05-25T05:29:51.597Z,220.00
2018-05-25T05:30:56.113Z,232.00
2018-05-25T05:32:01.630Z,248.00
2018-05-25T05:33:07.156Z,268.00
2018-05-25T05:34:12.662Z,276.00
2018-05-25T05:35:18.169Z,288.00
2018-05-25T05:36:24.697Z,292.00
2018-05-25T05:37:29.225Z,292.00
2018-05-25T05:38:34.729Z,296.00
2018-05-25T05:39:40.236Z,300.00
2018-05-25T05:40:45.756Z,312.00
2018-05-25T05:41:51.274Z,280.00
2018-05-25T05:42:57.792Z,236.00
2018-05-25T05:44:02.313Z,304.00
2018-05-25T05:45:07.844Z,344.00
2018-05-25T05:46:13.346Z,348.00
2018-05-25T05:47:18.865Z,352.00
2018-05-25T05:48:24.376Z,380.00
2018-05-25T05:49:30.905Z,380.00
2018-05-25T05:50:35.406Z,384.00
2018-05-25T05:51:40.929Z,384.00
2018-05-25T05:52:46.441Z,376.00
2018-05-25T05:53:51.954Z,360.00
2018-05-25T05:54:57.471Z,344.00
2018-05-25T05:56:04.004Z,332.00
2018-05-25T05:57:08.495Z,328.00
2018-05-25T05:58:14.026Z,328.00
2018-05-25T05:59:19.535Z,328.00
2018-05-25T06:00:25.057Z,340.00
2018-05-25T06:01:30.572Z,348.00
2018-05-25T06:02:37.113Z,348.00
2018-05-25T06:03:41.607Z,344.00
2018-05-25T06:04:47.129Z,344.00
2018-05-25T06:05:52.634Z,336.00
2018-05-25T06:06:58.174Z,340.00
2018-05-25T06:08:03.673Z,340.00
2018-05-25T06:09:10.223Z,344.00
2018-05-25T06:10:14.710Z,352.00
2018-05-25T06:11:20.228Z,364.00
2018-05-25T06:12:25.773Z,364.00
2018-05-25T06:13:31.266Z,372.00
2018-05-25T06:14:36.771Z,372.00
2018-05-25T06:15:43.303Z,372.00
2018-05-25T06:16:47.806Z,372.00
2018-05-25T06:17:53.335Z,372.00
2018-05-25T06:18:58.859Z,372.00
2018-05-25T06:20:04.366Z,368.00
2018-05-25T06:21:09.876Z,364.00
2018-05-25T06:22:16.415Z,356.00
2018-05-25T06:23:20.911Z,352.00
2018-05-25T06:24:26.431Z,352.00
2018-05-25T06:25:31.946Z,348.00
2018-05-25T06:26:37.486Z,352.00
2018-05-25T06:27:42.984Z,356.00
2018-05-25T06:28:49.520Z,364.00
2018-05-25T06:29:54.039Z,372.00
2018-05-25T06:30:59.536Z,380.00
2018-05-25T06:32:05.053Z,392.00
2018-05-25T06:33:10.565Z,396.00
2018-05-25T06:34:16.103Z,392.00
2018-05-25T06:35:22.622Z,376.00
2018-05-25T06:36:27.199Z,364.00
2018-05-25T06:37:32.649Z,352.00
2018-05-25T06:38:38.157Z,344.00
2018-05-25T06:39:43.689Z,336.00
2018-05-25T06:40:49.203Z,332.00
2018-05-25T06:41:55.723Z,328.00
2018-05-25T06:43:00.232Z,328.00
2018-05-25T06:44:05.748Z,328.00
2018-05-25T06:45:11.265Z,336.00
2018-05-25T06:46:16.779Z,332.00
2018-05-25T06:47:22.305Z,332.00
2018-05-25T06:48:28.840Z,332.00
2018-05-25T06:49:33.352Z,332.00
2018-05-25T06:50:38.909Z,344.00
2018-05-25T06:51:44.371Z,348.00
2018-05-25T06:52:49.895Z,344.00
2018-05-25T06:53:55.405Z,340.00
2018-05-25T06:55:01.940Z,336.00
2018-05-25T06:56:06.438Z,340.00
2018-05-25T06:57:11.953Z,340.00
2018-05-25T06:58:17.480Z,336.00
2018-05-25T06:59:22.985Z,340.00
2018-05-25T07:00:28.510Z,344.00
2018-05-25T07:01:35.094Z,352.00
2018-05-25T07:02:39.538Z,340.00
2018-05-25T07:03:45.081Z,344.00
2018-05-25T07:04:50.592Z,340.00
2018-05-25T07:05:56.103Z,352.00
2018-05-25T07:07:01.607Z,360.00
2018-05-25T07:08:08.144Z,360.00
2018-05-25T07:09:12.654Z,368.00
2018-05-25T07:10:18.168Z,372.00
2018-05-25T07:11:23.682Z,384.00
2018-05-25T07:12:29.264Z,396.00
2018-05-25T07:13:34.727Z,404.00
2018-05-25T07:14:41.255Z,408.00
2018-05-25T07:15:45.766Z,408.00
2018-05-25T07:16:51.285Z,396.00
2018-05-25T07:17:56.832Z,396.00
2018-05-25T07:19:02.316Z,388.00
2018-05-25T07:20:07.843Z,380.00
2018-05-25T07:21:14.363Z,376.00
2018-05-25T07:22:18.868Z,372.00
2018-05-25T07:23:24.388Z,364.00
2018-05-25T07:24:29.909Z,364.00
2018-05-25T07:25:35.414Z,368.00
2018-05-25T07:26:40.940Z,368.00
2018-05-25T07:27:47.479Z,368.00
2018-05-25T07:28:51.979Z,372.00
2018-05-25T07:29:57.490Z,376.00
2018-05-25T07:31:03.016Z,352.00
2018-05-25T07:32:08.543Z,344.00
2018-05-25T07:33:14.053Z,344.00
2018-05-25T07:34:20.574Z,340.00
2018-05-25T07:35:25.083Z,336.00
2018-05-25T07:36:30.601Z,336.00
2018-05-25T07:37:36.119Z,340.00
2018-05-25T07:38:41.647Z,344.00
2018-05-25T07:39:47.173Z,336.00
2018-05-25T07:40:53.710Z,340.00
2018-05-25T07:41:58.196Z,344.00
2018-05-25T07:43:03.710Z,352.00
2018-05-25T07:44:09.228Z,360.00
2018-05-25T07:45:14.757Z,392.00
2018-05-25T07:46:20.274Z,388.00
2018-05-25T07:47:26.799Z,392.00
2018-05-25T07:48:31.309Z,392.00
2018-05-25T07:49:36.915Z,396.00
2018-05-25T07:50:42.343Z,400.00
2018-05-25T07:51:47.865Z,400.00
2018-05-25T07:52:53.403Z,404.00
2018-05-25T07:53:59.902Z,408.00
2018-05-25T07:55:04.424Z,412.00
2018-05-25T07:56:09.944Z,420.00
2018-05-25T07:57:15.448Z,428.00
2018-05-25T07:58:20.970Z,432.00
2018-05-25T07:59:26.493Z,436.00
2018-05-25T08:00:33.039Z,444.00
2018-05-25T08:01:37.523Z,456.00
2018-05-25T08:02:43.055Z,476.00
2018-05-25T08:03:48.569Z,480.00
2018-05-25T08:04:54.081Z,476.00
2018-05-25T08:05:59.599Z,488.00
2018-05-25T08:07:06.125Z,536.00
2018-05-25T08:08:10.653Z,552.00
2018-05-25T08:09:16.159Z,484.00
2018-05-25T08:10:21.677Z,484.00
2018-05-25T08:11:27.196Z,496.00
2018-05-25T08:12:32.707Z,504.00
2018-05-25T08:13:39.235Z,524.00
2018-05-25T08:14:43.756Z,532.00
2018-05-25T08:15:49.271Z,568.00
2018-05-25T08:16:54.792Z,616.00
2018-05-25T08:18:00.328Z,564.00
2018-05-25T08:19:05.826Z,596.00
2018-05-25T08:20:12.357Z,604.00
2018-05-25T08:21:16.873Z,612.00
2018-05-25T08:22:22.464Z,572.00
2018-05-25T08:23:27.899Z,604.00
2018-05-25T08:24:33.415Z,564.00
2018-05-25T08:25:38.949Z,612.00
2018-05-25T08:26:45.473Z,772.00
2018-05-25T08:27:50.004Z,824.00
2018-05-25T08:28:55.497Z,812.00
2018-05-25T08:30:01.012Z,724.00
2018-05-25T08:31:06.532Z,664.00
2018-05-25T08:32:12.066Z,640.00
2018-05-25T08:33:18.600Z,648.00
2018-05-25T08:34:23.095Z,696.00
2018-05-25T08:35:28.608Z,684.00
2018-05-25T08:36:34.126Z,708.00
2018-05-25T08:37:39.653Z,736.00
2018-05-25T08:38:45.167Z,772.00
2018-05-25T08:39:51.696Z,712.00
2018-05-25T08:40:56.210Z,788.00
2018-05-25T08:42:01.752Z,776.00
2018-05-25T08:43:07.246Z,776.00
2018-05-25T08:44:12.785Z,808.00
2018-05-25T08:45:18.285Z,836.00
2018-05-25T08:46:24.813Z,888.00
2018-05-25T08:47:29.346Z,964.00
2018-05-25T08:48:34.853Z,928.00
2018-05-25T08:49:40.363Z,884.00
2018-05-25T08:50:45.890Z,876.00
2018-05-25T08:51:51.605Z,844.00
2018-05-25T08:52:57.939Z,824.00
2018-05-25T08:54:02.447Z,864.00
2018-05-25T08:55:08.029Z,976.00
2018-05-25T08:56:13.494Z,1040.00
2018-05-25T08:57:18.998Z,1028.00
2018-05-25T08:58:24.534Z,1008.00
2018-05-25T08:59:31.045Z,1008.00
2018-05-25T09:00:35.551Z,992.00
2018-05-25T09:01:41.081Z,1084.00
2018-05-25T09:02:46.593Z,1068.00
2018-05-25T09:03:52.126Z,1116.00
2018-05-25T09:04:57.635Z,1140.00
2018-05-25T09:06:04.166Z,1108.00
2018-05-25T09:07:08.675Z,1144.00
2018-05-25T09:08:14.185Z,1124.00
2018-05-25T09:09:19.760Z,1132.00
2018-05-25T09:10:25.231Z,1172.00
2018-05-25T09:11:30.750Z,1144.00
2018-05-25T09:12:37.279Z,1144.00
2018-05-25T09:13:41.801Z,1136.00
2018-05-25T09:14:47.315Z,1036.00
2018-05-25T09:15:52.833Z,1120.00
2018-05-25T09:16:58.367Z,1024.00
2018-05-25T09:18:03.879Z,1036.00
2018-05-25T09:19:10.425Z,972.00
2018-05-25T09:20:14.914Z,1048.00
2018-05-25T09:21:20.439Z,1108.00
2018-05-25T09:22:25.968Z,1112.00
2018-05-25T09:23:31.494Z,1188.00
2018-05-25T09:24:36.993Z,1064.00
2018-05-25T09:25:43.523Z,1096.00
2018-05-25T09:26:48.055Z,1080.00
2018-05-25T09:27:53.560Z,1012.00
2018-05-25T09:28:59.070Z,988.00
2018-05-25T09:30:04.600Z,972.00
2018-05-25T09:31:10.132Z,880.00
2018-05-25T09:32:16.651Z,680.00
2018-05-25T09:33:21.161Z,524.00
2018-05-25T09:34:26.684Z,440.00
2018-05-25T09:35:32.197Z,380.00
2018-05-25T09:36:37.714Z,340.00
2018-05-25T09:37:43.232Z,300.00
2018-05-25T09:38:49.780Z,272.00
2018-05-25T09:39:54.280Z,260.00
2018-05-25T09:40:59.806Z,244.00
2018-05-25T09:42:05.327Z,232.00
2018-05-25T09:43:10.843Z,216.00
2018-05-25T09:44:16.364Z,200.00
2018-05-25T09:45:22.899Z,196.00
2018-05-25T09:46:27.427Z,204.00
2018-05-25T09:47:32.931Z,192.00
2018-05-25T09:48:38.443Z,176.00
2018-05-25T09:49:43.958Z,168.00
2018-05-25T09:50:49.491Z,172.00
2018-05-25T09:51:56.027Z,176.00
2018-05-25T09:53:00.538Z,184.00
2018-05-25T09:54:06.055Z,180.00
2018-05-25T09:55:11.577Z,184.00
2018-05-25T09:56:17.084Z,184.00
2018-05-25T09:57:22.691Z,180.00
2018-05-25T09:58:29.143Z,180.00
2018-05-25T09:59:33.648Z,180.00
2018-05-25T10:00:39.176Z,172.00
2018-05-25T10:01:44.686Z,156.00
2018-05-25T10:02:50.204Z,140.00
2018-05-25T10:03:55.732Z,132.00
2018-05-25T10:05:02.273Z,128.00
2018-05-25T10:06:06.758Z,128.00
2018-05-25T10:07:12.280Z,132.00
2018-05-25T10:08:17.802Z,124.00
2018-05-25T10:09:23.327Z,120.00
2018-05-25T10:10:28.842Z,116.00
2018-05-25T10:11:35.386Z,120.00
2018-05-25T10:12:39.886Z,124.00
2018-05-25T10:13:45.426Z,128.00
2018-05-25T10:14:50.936Z,132.00
2018-05-25T10:15:56.435Z,132.00
2018-05-25T10:17:01.971Z,132.00
2018-05-25T10:18:08.498Z,124.00
2018-05-25T10:19:13.004Z,108.00
2018-05-25T10:20:18.518Z,100.00
2018-05-25T10:21:24.043Z,96.00
2018-05-25T10:22:29.598Z,100.00
2018-05-25T10:23:35.085Z,100.00
2018-05-25T10:24:41.613Z,100.00
2018-05-25T10:25:46.143Z,96.00
2018-05-25T10:26:51.636Z,96.00
2018-05-25T10:27:57.268Z,100.00
2018-05-25T10:29:02.676Z,104.00
2018-05-25T10:30:08.196Z,108.00
2018-05-25T10:31:14.749Z,96.00
2018-05-25T10:32:19.239Z,96.00
2018-05-25T10:33:24.783Z,104.00
2018-05-25T10:34:30.283Z,100.00
2018-05-25T10:35:35.788Z,92.00
2018-05-25T10:36:41.325Z,92.00
2018-05-25T10:37:47.844Z,96.00
2018-05-25T10:38:52.365Z,104.00
2018-05-25T10:39:57.883Z,120.00
2018-05-25T10:41:03.452Z,132.00
2018-05-25T10:42:08.909Z,148.00
2018-05-25T10:43:14.435Z,156.00
2018-05-25T10:44:20.957Z,168.00
2018-05-25T10:45:25.468Z,176.00
2018-05-25T10:46:30.994Z,176.00
2018-05-25T10:47:36.508Z,184.00
2018-05-25T10:48:42.068Z,172.00
2018-05-25T10:49:47.544Z,164.00
2018-05-25T10:50:54.078Z,172.00
2018-05-25T10:51:58.595Z,196.00
2018-05-25T10:53:04.122Z,232.00
2018-05-25T10:54:09.627Z,256.00
2018-05-25T10:55:15.144Z,268.00
2018-05-25T10:56:20.674Z,284.00
2018-05-25T10:57:27.186Z,296.00
2018-05-25T10:58:31.733Z,300.00
2018-05-25T10:59:37.218Z,296.00
2018-05-25T11:00:42.792Z,296.00
2018-05-25T11:01:48.257Z,300.00
2018-05-25T11:02:53.796Z,304.00
2018-05-25T11:04:00.321Z,316.00
2018-05-25T11:05:04.808Z,348.00
2018-05-25T11:06:10.332Z,372.00
2018-05-25T11:07:15.853Z,392.00
2018-05-25T11:08:21.369Z,408.00
2018-05-25T11:09:27.777Z,420.00
2018-05-25T11:10:33.438Z,428.00
2018-05-25T11:11:38.008Z,436.00
2018-05-25T11:12:43.449Z,448.00
2018-05-25T11:13:48.971Z,460.00
2018-05-25T11:14:54.497Z,476.00
2018-05-25T11:15:59.995Z,496.00
2018-05-25T11:17:06.540Z,508.00
2018-05-25T11:18:11.040Z,520.00
2018-05-25T11:19:16.574Z,520.00
2018-05-25T11:20:22.082Z,512.00
2018-05-25T11:21:27.602Z,504.00
2018-05-25T11:22:33.148Z,516.00
2018-05-25T11:23:39.652Z,508.00
2018-05-25T11:24:44.151Z,524.00
2018-05-25T11:25:49.667Z,560.00
2018-05-25T11:26:55.208Z,592.00
2018-05-25T11:28:00.723Z,644.00
2018-05-25T11:29:06.240Z,688.00
2018-05-25T11:30:12.775Z,724.00
2018-05-25T11:31:17.273Z,768.00
2018-05-25T11:32:22.791Z,800.00
2018-05-25T11:33:28.412Z,836.00
2018-05-25T11:34:33.831Z,804.00
2018-05-25T11:35:39.396Z,764.00
2018-05-25T11:36:45.891Z,748.00
2018-05-25T11:37:50.399Z,736.00
2018-05-25T11:38:55.907Z,728.00
2018-05-25T11:40:01.422Z,748.00
2018-05-25T11:41:06.967Z,784.00
2018-05-25T11:42:12.493Z,824.00
2018-05-25T11:43:19.008Z,820.00
2018-05-25T11:44:23.503Z,832.00
2018-05-25T11:45:29.020Z,848.00
2018-05-25T11:46:34.540Z,860.00
2018-05-25T11:47:40.055Z,876.00
2018-05-25T11:48:45.574Z,892.00
2018-05-25T11:49:52.107Z,900.00
2018-05-25T11:50:56.651Z,916.00
2018-05-25T11:52:02.136Z,924.00
2018-05-25T11:53:07.674Z,956.00
2018-05-25T11:54:13.222Z,1000.00
2018-05-25T11:55:18.700Z,1060.00
2018-05-25T11:56:25.249Z,1088.00
2018-05-25T11:57:29.731Z,1156.00
2018-05-25T11:58:35.285Z,1216.00
2018-05-25T11:59:40.779Z,1280.00
2018-05-25T12:00:46.299Z,1340.00
2018-05-25T12:01:51.829Z,1364.00
2018-05-25T12:02:58.350Z,1520.00
2018-05-25T12:04:02.860Z,1632.00
2018-05-25T12:05:08.376Z,1764.00
2018-05-25T12:06:13.939Z,1788.00
2018-05-25T12:07:19.422Z,1716.00
2018-05-25T12:08:24.965Z,1876.00
2018-05-25T12:09:31.449Z,1864.00
2018-05-25T12:10:35.963Z,1692.00
2018-05-25T12:11:41.535Z,1828.00
2018-05-25T12:12:47.038Z,1828.00
2018-05-25T12:13:52.529Z,1796.00
2018-05-25T12:14:58.039Z,1956.00
2018-05-25T12:16:04.574Z,1876.00
2018-05-25T12:17:09.111Z,1724.00
2018-05-25T12:18:14.602Z,1732.00
2018-05-25T12:19:20.130Z,1664.00
2018-05-25T12:20:25.643Z,1804.00
2018-05-25T12:21:31.170Z,1940.00
2018-05-25T12:22:37.711Z,2000.00
2018-05-25T12:23:42.215Z,1912.00
2018-05-25T12:24:47.725Z,1856.00
2018-05-25T12:25:53.293Z,1748.00
2018-05-25T12:26:58.763Z,1724.00
2018-05-25T12:28:04.285Z,1900.00
2018-05-25T12:29:10.812Z,1808.00
2018-05-25T12:30:15.332Z,1668.00
2018-05-25T12:31:20.841Z,1608.00
2018-05-25T12:32:26.367Z,1480.00
2018-05-25T12:33:31.898Z,1492.00
2018-05-25T12:34:37.412Z,1596.00
2018-05-25T12:35:43.958Z,1656.00
2018-05-25T12:36:48.460Z,1692.00
2018-05-25T12:37:53.980Z,1600.00
2018-05-25T12:38:59.509Z,1564.00
2018-05-25T12:40:05.012Z,1248.00
2018-05-25T12:41:10.571Z,1336.00
2018-05-25T12:42:17.073Z,1488.00
2018-05-25T12:43:21.582Z,1656.00
2018-05-25T12:44:27.121Z,1668.00
2018-05-25T12:45:32.630Z,1656.00
2018-05-25T12:46:38.143Z,1676.00
2018-05-25T12:47:43.680Z,1604.00
2018-05-25T12:48:50.200Z,1548.00
2018-05-25T12:49:54.711Z,1568.00
2018-05-25T12:51:00.240Z,1444.00
2018-05-25T12:52:05.757Z,1544.00
2018-05-25T12:53:11.303Z,1596.00
2018-05-25T12:54:16.809Z,1684.00
2018-05-25T12:55:23.346Z,1620.00
2018-05-25T12:56:27.845Z,1568.00
2018-05-25T12:57:33.353Z,1560.00
2018-05-25T12:58:38.896Z,1540.00
2018-05-25T12:59:44.407Z,1536.00
2018-05-25T13:00:49.936Z,1552.00
2018-05-25T13:01:56.459Z,1552.00
2018-05-25T13:03:00.970Z,1508.00
2018-05-25T13:04:06.483Z,1440.00
2018-05-25T13:05:12.024Z,1252.00
2018-05-25T13:06:17.537Z,1264.00
2018-05-25T13:07:23.053Z,1348.00
2018-05-25T13:08:29.585Z,1200.00
2018-05-25T13:09:34.118Z,1396.00
2018-05-25T13:10:39.616Z,1404.00
2018-05-25T13:11:45.148Z,1464.00
2018-05-25T13:12:50.664Z,1468.00
2018-05-25T13:13:56.185Z,1332.00
2018-05-25T13:15:02.736Z,1288.00
2018-05-25T13:16:07.230Z,1440.00
2018-05-25T13:17:12.763Z,1552.00
2018-05-25T13:18:18.290Z,1600.00
2018-05-25T13:19:23.800Z,1520.00
2018-05-25T13:20:29.344Z,1460.00
2018-05-25T13:21:35.843Z,1548.00
2018-05-25T13:22:40.375Z,1520.00
2018-05-25T13:23:45.893Z,1476.00
2018-05-25T13:24:51.401Z,1388.00
2018-05-25T13:25:56.941Z,1296.00
2018-05-25T13:27:02.450Z,1216.00
2018-05-25T13:28:08.987Z,1260.00
2018-05-25T13:29:13.510Z,1296.00
2018-05-25T13:30:19.008Z,1320.00
2018-05-25T13:31:24.545Z,1248.00
2018-05-25T13:32:30.047Z,1156.00
2018-05-25T13:33:35.590Z,1156.00
2018-05-25T13:34:42.127Z,1180.00
2018-05-25T13:35:46.640Z,1000.00
2018-05-25T13:36:52.150Z,892.00
2018-05-25T13:37:57.692Z,864.00
2018-05-25T13:39:03.200Z,892.00
2018-05-25T13:40:08.723Z,968.00
2018-05-25T13:41:15.246Z,1116.00
2018-05-25T13:42:19.784Z,1072.00
2018-05-25T13:43:25.300Z,1008.00
2018-05-25T13:44:30.811Z,940.00
2018-05-25T13:45:36.319Z,968.00
2018-05-25T13:46:41.855Z,988.00
2018-05-25T13:47:48.376Z,1020.00
2018-05-25T13:48:52.897Z,1020.00